Arab, Missouri
Current Conditions -  °F | °C
As of 2:53 AM on Wednesday 22 Oct 2014 (Local Time) from KPOF Reporting Station
Clear Clear  
Wind Chill: 47°   Ceiling: Unl
Heat Index: 49°   Visibility: 10mi
Dew Point: 42°   Wind: 6mph
Humidity: 77%   Direction: 30°NNE
Pressure: 30.18"   Gusts: NA
Location:  37.1241°N, 90.0834°W
Report Text: KPOF 220753Z AUTO 03005KT 10SM CLR 09/06 A3018 RMK AO2 SLP218 T00940056
Loading
Personal Weather Stations






























Interactive Weather Map
Tropical Storm Tracking
New forecast layout! Learn more

10-Day Weather Forecast

Advertisements
Track Severe Weather on mobile